Anselmo, NE

11:19 AM CDT on October 01, 2014 (GMT -0500)
Broken Bow Municipal | Change Station
CLOSE
Current Station
Airport
Location: Broken Bow,
Elevation: 2546 ft
Nearby Weather Stations

Elev 2546 ft 41.44 °N, 99.64 °W | Updated 26 minutes ago

Clear
Clear
70 °F
Feels Like 70 °F
N
10
Wind Variable Wind from NNW

Today
High -- | Low -- °F
--% Chance of Precip.
Yesterday
High -- | Low -- °F
Precip. -- in
7:35 AM 7:20 PM
Waxing Crescent, 49% visible
Pressure 29.75 in
Visibility 10.0 miles
Clouds Clear
Dew Point 52 °F
Humidity 53%
Rainfall 0.03 in
Snow Depth Not available.
UV 4 out of 12
Pollen 4.00 out of 12
Air Quality Not available.
Flu Activity Not available.
METAR KBBW 011553Z AUTO 34009KT 10SM CLR 21/11 A2979 RMK AO2 SLP073 T02110111

More Conditions Fewer Conditions

Pressure 29.75 in
Visibility 10.0 miles
Clouds Clear
Dew Point 52 °F
Humidity 53%
Rainfall 0.03 in
Snow Depth Not available.
UV 4 out of 12
Pollen 4.00 out of 12
Air Quality Not available.
Flu Activity Not available.
METAR KBBW 011553Z AUTO 34009KT 10SM CLR 21/11 A2979 RMK AO2 SLP073 T02110111

More Conditions Fewer Conditions

10-Day Weather Forecast

Almanac

Astronomy

Oct. 01, 2014 Rise Set
Actual Time 7:35 AM CDT 7:20 PM CDT
Civil Twilight 7:08 AM CDT 7:48 PM CDT
Nautical Twilight 6:36 AM CDT 8:20 PM CDT
Astronomical Twilight 6:03 AM CDT 8:53 PM CDT
Moon 2:41 PM CDT No Moon Set
Length of Visible Light 12h 40m
Length of Day
11h 44m
Tomorrow will be 2m 45s shorter.
Waxing Crescent, 49% of the Moon is Illuminated
Today
Waxing Crescent
Oct 1
First Quarter
Oct 8
Full
Oct 15
Last Quarter
Oct 23
New

Today's Extremes

State Highs State Lows

Community

WunderPhotos

Upload Photos

1,757,976 photos uploaded!

WunderBlogs® & News

Nearby

Snow Depth

Station Depth Elevation
No new snow has been reported.

Earthquake Activity

City Distance Mag. Time & Date
No recent earthquake activity has been reported nearby.
Minimum magnitude displayed is 2.5.

Coastal Water Temperatures

Place Temperature
No Stations Reporting

Nearby Weather Stations